createdAt,value
2019-02-04T00:02:24.645Z,77.71
2019-02-04T00:07:26.152Z,77.94
2019-02-04T00:09:57.092Z,77.87
2019-02-04T00:12:27.522Z,77.73
2019-02-04T00:14:58.359Z,78.09
2019-02-04T00:17:30.518Z,77.98
2019-02-04T00:22:31.103Z,78.35
2019-02-04T00:25:01.749Z,78.32
2019-02-04T00:27:33.302Z,78.45
2019-02-04T00:30:04.667Z,78.45
2019-02-04T00:32:35.386Z,78.73
2019-02-04T00:35:06.392Z,78.80
2019-02-04T00:37:37.269Z,79.31
2019-02-04T00:40:09.919Z,79.60
2019-02-04T00:42:40.611Z,79.60
2019-02-04T00:45:11.966Z,80.19
2019-02-04T00:47:42.979Z,80.44
2019-02-04T00:50:14.665Z,80.73
2019-02-04T00:52:45.337Z,80.76
2019-02-04T00:55:16.514Z,81.02
2019-02-04T00:57:47.461Z,81.02
2019-02-04T01:00:24.277Z,80.61
2019-02-04T01:02:55.203Z,81.79
2019-02-04T01:05:26.058Z,82.80
2019-02-04T01:07:57.103Z,82.80
2019-02-04T01:10:28.601Z,83.22
2019-02-04T01:12:59.915Z,83.22
2019-02-04T01:15:31.020Z,82.75
2019-02-04T01:18:01.713Z,81.94
2019-02-04T01:20:32.761Z,80.86
2019-02-04T01:23:03.929Z,79.71
2019-02-04T01:25:34.960Z,79.56
2019-02-04T01:28:06.867Z,79.06
2019-02-04T01:30:37.576Z,79.08
2019-02-04T01:33:08.523Z,79.12
2019-02-04T01:35:39.768Z,80.44
2019-02-04T01:38:10.582Z,80.44
2019-02-04T01:40:43.372Z,80.06
2019-02-04T01:43:13.884Z,80.28
2019-02-04T01:45:45.094Z,80.29
2019-02-04T01:48:16.507Z,80.51
2019-02-04T01:50:47.029Z,80.76
2019-02-04T01:53:19.271Z,80.76
2019-02-04T01:55:50.991Z,80.81
2019-02-04T01:58:23.122Z,81.24
2019-02-04T02:00:53.691Z,81.72
2019-02-04T02:03:24.223Z,82.13
2019-02-04T02:05:55.197Z,83.05
2019-02-04T02:08:25.830Z,83.05
2019-02-04T02:10:56.698Z,83.19
2019-02-04T02:13:27.216Z,83.18
2019-02-04T02:15:58.538Z,83.13
2019-02-04T02:18:29.149Z,82.92
2019-02-04T02:20:59.710Z,82.75
2019-02-04T02:23:31.118Z,82.82
2019-02-04T02:26:01.837Z,83.11
2019-02-04T02:28:33.635Z,82.75
2019-02-04T02:31:04.550Z,82.75
2019-02-04T02:33:35.537Z,82.68
2019-02-04T02:36:06.415Z,82.55
2019-02-04T02:38:37.291Z,82.52
2019-02-04T02:41:09.085Z,82.69
2019-02-04T02:43:40.012Z,82.99
2019-02-04T02:46:10.683Z,83.43
2019-02-04T02:48:41.165Z,83.88
2019-02-04T02:51:12.342Z,83.77
2019-02-04T02:53:42.845Z,83.55
2019-02-04T02:56:13.627Z,84.05
2019-02-04T02:58:45.926Z,84.56
2019-02-04T03:01:16.615Z,84.78
2019-02-04T03:03:47.379Z,85.04
2019-02-04T03:06:18.252Z,84.49
2019-02-04T03:08:49.236Z,84.15
2019-02-04T03:11:19.996Z,84.15
2019-02-04T03:13:50.566Z,83.67
2019-02-04T03:16:21.203Z,83.98
2019-02-04T03:18:51.752Z,84.24
2019-02-04T03:21:22.416Z,84.11
2019-02-04T03:23:53.160Z,84.11
2019-02-04T03:26:24.095Z,84.25
2019-02-04T03:28:55.999Z,84.31
2019-02-04T03:31:26.959Z,82.97
2019-02-04T03:33:57.650Z,82.97
2019-02-04T03:36:28.388Z,82.67
2019-02-04T03:38:59.787Z,82.50
2019-02-04T03:41:30.912Z,82.45
2019-02-04T03:44:07.207Z,82.59
2019-02-04T03:46:40.218Z,82.19
2019-02-04T03:49:11.237Z,81.63
2019-02-04T03:51:44.558Z,81.01
2019-02-04T03:54:15.827Z,80.81
2019-02-04T03:56:46.492Z,80.32
2019-02-04T03:59:17.094Z,79.71
2019-02-04T04:01:47.781Z,79.27
2019-02-04T04:04:18.638Z,78.66
2019-02-04T04:06:49.741Z,78.22
2019-02-04T04:09:20.725Z,77.78
2019-02-04T04:11:51.396Z,77.48
2019-02-04T04:14:21.986Z,77.41
2019-02-04T04:16:52.915Z,77.23
2019-02-04T04:19:23.719Z,76.81
2019-02-04T04:21:54.339Z,76.90
2019-02-04T04:24:25.006Z,76.88
2019-02-04T04:26:55.883Z,76.79
2019-02-04T04:29:27.438Z,76.68
2019-02-04T04:31:58.203Z,76.29
2019-02-04T04:34:28.958Z,76.18
2019-02-04T04:36:59.468Z,75.94
2019-02-04T04:39:30.668Z,75.71
2019-02-04T04:42:01.522Z,75.87
2019-02-04T04:44:32.437Z,76.12
2019-02-04T04:47:04.505Z,76.02
2019-02-04T04:49:35.605Z,76.37
2019-02-04T04:52:06.608Z,76.76
2019-02-04T04:54:37.529Z,77.18
2019-02-04T04:57:10.263Z,77.56
2019-02-04T04:59:41.306Z,77.89
2019-02-04T05:02:14.852Z,77.48
2019-02-04T05:04:45.827Z,77.71
2019-02-04T05:07:17.255Z,77.84
2019-02-04T05:09:47.911Z,77.81
2019-02-04T05:12:19.514Z,78.05
2019-02-04T05:14:50.231Z,77.62
2019-02-04T05:17:20.847Z,77.57
2019-02-04T05:19:52.514Z,78.11
2019-02-04T05:22:23.164Z,78.44
2019-02-04T05:24:55.135Z,78.78
2019-02-04T05:27:25.875Z,79.10
2019-02-04T05:29:57.481Z,79.08
2019-02-04T05:32:28.374Z,79.16
2019-02-04T05:34:59.781Z,79.70
2019-02-04T05:37:30.719Z,79.70
2019-02-04T05:40:01.666Z,79.62
2019-02-04T05:42:34.488Z,79.88
2019-02-04T05:45:06.131Z,80.16
2019-02-04T05:47:37.116Z,79.54
2019-02-04T05:50:10.065Z,79.32
2019-02-04T05:52:40.698Z,78.82
2019-02-04T05:55:12.280Z,78.79
2019-02-04T05:57:43.229Z,78.97
2019-02-04T06:00:19.596Z,78.94
2019-02-04T06:02:50.266Z,78.35
2019-02-04T06:05:21.445Z,77.86
2019-02-04T06:07:52.368Z,76.34
2019-02-04T06:10:23.091Z,75.39
2019-02-04T06:12:55.650Z,74.93
2019-02-04T06:15:26.294Z,74.27
2019-02-04T06:17:57.091Z,73.54
2019-02-04T06:20:28.037Z,73.41
2019-02-04T06:22:58.695Z,73.49
2019-02-04T06:25:29.749Z,73.54
2019-02-04T06:28:00.667Z,73.44
2019-02-04T06:30:33.382Z,73.19
2019-02-04T06:33:04.438Z,72.62
2019-02-04T06:35:35.350Z,72.97
2019-02-04T06:38:06.967Z,72.59
2019-02-04T06:40:37.892Z,72.51
2019-02-04T06:43:08.990Z,72.04
2019-02-04T06:45:41.265Z,71.93
2019-02-04T06:48:12.363Z,71.95
2019-02-04T06:50:43.300Z,72.13
2019-02-04T06:53:13.992Z,71.66
2019-02-04T06:55:44.483Z,70.70
2019-02-04T06:58:15.070Z,70.71
2019-02-04T07:00:46.132Z,70.27
2019-02-04T07:03:17.190Z,69.93
2019-02-04T07:05:47.840Z,69.85
2019-02-04T07:08:20.415Z,69.83
2019-02-04T07:10:51.310Z,69.72
2019-02-04T07:13:22.499Z,69.75
2019-02-04T07:15:53.266Z,70.05
2019-02-04T07:18:24.228Z,70.35
2019-02-04T07:20:54.930Z,70.57
2019-02-04T07:23:25.687Z,70.79
2019-02-04T07:25:56.634Z,70.36
2019-02-04T07:28:27.029Z,69.81
2019-02-04T07:30:58.931Z,69.61
2019-02-04T07:33:29.540Z,69.30
2019-02-04T07:36:03.214Z,69.49
2019-02-04T07:38:33.227Z,69.88
2019-02-04T07:41:04.333Z,69.71
2019-02-04T07:43:35.792Z,69.75
2019-02-04T07:46:06.871Z,68.99
2019-02-04T07:48:37.608Z,69.51
2019-02-04T07:51:08.409Z,69.17
2019-02-04T07:53:39.353Z,68.92
2019-02-04T07:56:10.208Z,68.43
2019-02-04T07:58:40.945Z,68.13
2019-02-04T08:01:11.678Z,68.26
2019-02-04T08:03:42.227Z,68.38
2019-02-04T08:06:13.156Z,67.91
2019-02-04T08:08:43.862Z,67.05
2019-02-04T08:11:14.332Z,67.27
2019-02-04T08:13:45.045Z,67.37
2019-02-04T08:16:15.990Z,66.38
2019-02-04T08:18:46.778Z,65.80
2019-02-04T08:21:17.248Z,65.56
2019-02-04T08:23:48.471Z,65.69
2019-02-04T08:26:19.207Z,65.22
2019-02-04T08:28:49.861Z,65.31
2019-02-04T08:31:21.490Z,64.87
2019-02-04T08:33:52.364Z,64.37
2019-02-04T08:36:23.013Z,63.96
2019-02-04T08:38:53.758Z,63.89
2019-02-04T08:41:24.513Z,63.73
2019-02-04T08:43:56.180Z,63.12
2019-02-04T08:46:26.904Z,62.88
2019-02-04T08:48:57.535Z,64.01
2019-02-04T08:51:28.118Z,65.12
2019-02-04T08:53:58.812Z,64.74
2019-02-04T08:56:30.067Z,64.37
2019-02-04T08:59:01.167Z,63.45
2019-02-04T09:01:32.061Z,62.69
2019-02-04T09:04:02.864Z,61.88
2019-02-04T09:06:33.943Z,62.21
2019-02-04T09:09:07.202Z,62.22
2019-02-04T09:11:38.121Z,61.67
2019-02-04T09:14:09.285Z,61.42
2019-02-04T09:16:40.216Z,61.55
2019-02-04T09:19:11.084Z,60.84
2019-02-04T09:21:41.488Z,60.67
2019-02-04T09:24:31.163Z,61.16
2019-02-04T09:27:02.098Z,60.86
2019-02-04T09:29:33.735Z,59.91
2019-02-04T09:32:05.788Z,59.44
2019-02-04T09:34:36.833Z,61.03
2019-02-04T09:37:07.953Z,61.63
2019-02-04T09:39:39.043Z,61.07
2019-02-04T09:42:09.831Z,61.66
2019-02-04T09:44:40.303Z,61.81
2019-02-04T09:47:10.936Z,61.15
2019-02-04T09:49:41.885Z,61.62
2019-02-04T09:52:12.477Z,61.48
2019-02-04T09:54:44.192Z,61.70
2019-02-04T09:57:14.885Z,61.92
2019-02-04T09:59:45.424Z,61.13
2019-02-04T10:02:16.250Z,61.07
2019-02-04T10:04:47.052Z,61.25
2019-02-04T10:07:17.985Z,60.86
2019-02-04T10:09:48.571Z,60.61
2019-02-04T10:12:19.966Z,60.70
2019-02-04T10:14:50.575Z,60.55
2019-02-04T10:17:21.298Z,60.20
2019-02-04T10:19:52.083Z,60.01
2019-02-04T10:22:22.817Z,60.50
2019-02-04T10:24:53.466Z,60.90
2019-02-04T10:27:23.985Z,60.44
2019-02-04T10:29:55.816Z,60.04
2019-02-04T10:32:27.692Z,60.15
2019-02-04T10:34:58.323Z,59.59
2019-02-04T10:37:29.424Z,59.42
2019-02-04T10:40:00.312Z,59.27
2019-02-04T10:42:31.036Z,59.66
2019-02-04T10:45:01.580Z,60.99
2019-02-04T10:47:32.484Z,61.33
2019-02-04T10:50:03.443Z,61.08
2019-02-04T10:52:34.051Z,60.77
2019-02-04T10:57:40.617Z,60.88
2019-02-04T11:00:09.669Z,61.30
2019-02-04T11:02:40.321Z,61.31
2019-02-04T11:05:13.054Z,61.11
2019-02-04T11:07:44.317Z,60.96
2019-02-04T11:12:45.747Z,60.38
2019-02-04T11:15:17.906Z,59.84
2019-02-04T11:17:49.207Z,59.64
2019-02-04T11:20:22.731Z,59.25
2019-02-04T11:22:53.351Z,59.91
2019-02-04T11:25:24.054Z,60.02
2019-02-04T11:27:55.147Z,60.76
2019-02-04T11:30:28.177Z,61.18
2019-02-04T11:33:00.256Z,61.09
2019-02-04T11:35:31.226Z,61.08
2019-02-04T11:38:02.917Z,61.21
2019-02-04T11:40:35.693Z,61.30
2019-02-04T11:43:06.976Z,61.18
2019-02-04T11:45:38.473Z,61.33
2019-02-04T11:48:10.800Z,61.18
2019-02-04T11:50:42.176Z,60.98
2019-02-04T11:53:12.689Z,60.34
2019-02-04T11:55:43.781Z,60.32
2019-02-04T11:58:14.065Z,61.28
2019-02-04T12:00:44.702Z,60.51
2019-02-04T12:03:16.388Z,60.68
2019-02-04T12:05:46.816Z,60.35
2019-02-04T12:08:19.031Z,60.36
2019-02-04T12:10:55.830Z,60.44
2019-02-04T12:13:26.380Z,60.88
2019-02-04T12:15:59.673Z,60.48
2019-02-04T12:18:30.512Z,60.32
2019-02-04T12:21:01.256Z,60.47
2019-02-04T12:23:32.396Z,60.73
2019-02-04T12:26:03.139Z,60.42
2019-02-04T12:28:33.983Z,60.44
2019-02-04T12:31:04.633Z,59.73
2019-02-04T12:33:36.567Z,59.62
2019-02-04T12:36:06.132Z,59.07
2019-02-04T12:38:36.647Z,59.58
2019-02-04T12:41:10.187Z,60.04
2019-02-04T12:43:43.197Z,60.62
2019-02-04T12:46:14.104Z,60.48
2019-02-04T12:48:44.807Z,60.35
2019-02-04T12:51:16.017Z,59.85
2019-02-04T12:53:46.639Z,60.11
2019-02-04T12:56:17.144Z,60.28
2019-02-04T12:58:55.370Z,60.39
2019-02-04T13:01:20.142Z,60.73
2019-02-04T13:03:51.888Z,60.84
2019-02-04T13:06:22.583Z,60.45
2019-02-04T13:08:54.192Z,60.91
2019-02-04T13:11:24.978Z,61.49
2019-02-04T13:13:55.454Z,62.12
2019-02-04T13:16:26.004Z,62.15
2019-02-04T13:18:56.650Z,62.08
2019-02-04T13:21:27.211Z,62.24
2019-02-04T13:23:57.570Z,62.29
2019-02-04T13:26:29.263Z,62.60
2019-02-04T13:28:59.942Z,62.94
2019-02-04T13:31:30.571Z,62.86
2019-02-04T13:34:01.753Z,62.89
2019-02-04T13:36:32.968Z,63.12
2019-02-04T13:39:05.472Z,63.13
2019-02-04T13:41:36.036Z,63.19
2019-02-04T13:44:07.502Z,63.36
2019-02-04T13:46:38.191Z,63.49
2019-02-04T13:49:10.266Z,63.87
2019-02-04T13:51:42.271Z,63.93
2019-02-04T13:54:16.288Z,63.93
2019-02-04T13:56:47.091Z,63.88
2019-02-04T13:59:17.885Z,63.77
2019-02-04T14:01:48.757Z,63.64
2019-02-04T14:04:19.387Z,63.40
2019-02-04T14:06:49.861Z,63.37
2019-02-04T14:09:22.050Z,63.06
2019-02-04T14:11:52.606Z,62.63
2019-02-04T14:14:26.161Z,62.26
2019-02-04T14:16:56.705Z,62.26
2019-02-04T14:19:27.611Z,62.23
2019-02-04T14:22:08.962Z,62.22
2019-02-04T14:24:31.102Z,61.82
2019-02-04T14:27:02.133Z,61.69
2019-02-04T14:29:33.865Z,61.77
2019-02-04T14:32:04.478Z,61.71
2019-02-04T14:34:36.449Z,61.58
2019-02-04T14:37:07.326Z,61.78
2019-02-04T14:39:37.923Z,61.80
2019-02-04T14:42:12.327Z,62.20
2019-02-04T14:45:18.903Z,62.60
2019-02-04T14:48:05.624Z,62.85
2019-02-04T14:50:53.961Z,63.15
2019-02-04T14:54:00.328Z,63.43
2019-02-04T14:56:57.103Z,63.34
2019-02-04T14:59:35.600Z,63.92
2019-02-04T15:02:33.682Z,64.23
2019-02-04T15:05:29.093Z,64.56
2019-02-04T15:08:47.219Z,64.77
2019-02-04T15:11:49.174Z,65.04
2019-02-04T15:14:54.135Z,65.23
2019-02-04T15:17:55.287Z,65.48
2019-02-04T15:21:07.507Z,65.64
2019-02-04T15:24:27.892Z,65.90
2019-02-04T15:27:43.877Z,65.98
2019-02-04T15:30:48.612Z,66.22
2019-02-04T15:33:41.917Z,66.51
2019-02-04T15:36:26.437Z,66.62
2019-02-04T15:39:11.107Z,66.77
2019-02-04T15:42:11.033Z,67.00
2019-02-04T15:44:48.849Z,67.52
2019-02-04T15:47:31.891Z,67.98
2019-02-04T15:50:33.842Z,68.45
2019-02-04T15:53:05.950Z,68.42
2019-02-04T15:55:39.901Z,68.16
2019-02-04T15:58:09.650Z,68.19
2019-02-04T16:00:40.065Z,68.25
2019-02-04T16:03:10.689Z,68.27
2019-02-04T16:05:41.810Z,68.36
2019-02-04T16:08:12.673Z,68.54
2019-02-04T16:10:43.162Z,68.72
2019-02-04T16:13:16.158Z,68.87
2019-02-04T16:15:47.404Z,68.84
2019-02-04T16:18:18.165Z,68.92
2019-02-04T16:20:48.918Z,68.94
2019-02-04T16:23:19.403Z,69.00
2019-02-04T16:28:19.315Z,68.51
2019-02-04T16:30:49.800Z,68.61
2019-02-04T16:33:20.951Z,68.53
2019-02-04T16:35:52.224Z,68.22
2019-02-04T16:38:22.957Z,68.31
2019-02-04T16:40:54.096Z,69.30
2019-02-04T16:43:24.698Z,69.39
2019-02-04T16:45:55.681Z,69.63
2019-02-04T16:48:27.373Z,69.79
2019-02-04T16:51:10.829Z,70.53
2019-02-04T16:53:31.719Z,72.67
2019-02-04T16:56:02.455Z,73.78
2019-02-04T16:58:34.012Z,74.89
2019-02-04T17:01:06.083Z,75.81
2019-02-04T17:03:37.042Z,76.12
2019-02-04T17:06:09.028Z,76.43
2019-02-04T17:08:39.415Z,76.39
2019-02-04T17:11:09.924Z,75.90
2019-02-04T17:13:40.552Z,75.43
2019-02-04T17:16:11.032Z,74.83
2019-02-04T17:18:41.556Z,74.74
2019-02-04T17:21:12.407Z,74.44
2019-02-04T17:23:43.365Z,73.85
2019-02-04T17:26:14.203Z,73.03
2019-02-04T17:28:44.626Z,72.29
2019-02-04T17:31:15.546Z,71.56
2019-02-04T17:33:46.690Z,71.13
2019-02-04T17:36:17.248Z,70.75
2019-02-04T17:38:49.180Z,70.38
2019-02-04T17:41:19.736Z,70.72
2019-02-04T17:43:50.783Z,70.58
2019-02-04T17:46:21.527Z,70.71
2019-02-04T17:48:57.535Z,71.32
2019-02-04T17:51:31.910Z,72.12
2019-02-04T17:54:05.033Z,72.69
2019-02-04T17:56:34.660Z,73.29
2019-02-04T17:59:06.340Z,73.56
2019-02-04T18:01:37.267Z,73.85
2019-02-04T18:04:08.055Z,74.06
2019-02-04T18:06:43.142Z,74.08
2019-02-04T18:09:14.191Z,74.32
2019-02-04T18:11:45.059Z,74.54
2019-02-04T18:14:16.093Z,74.52
2019-02-04T18:16:46.746Z,73.95
2019-02-04T18:19:17.437Z,73.34
2019-02-04T18:21:48.347Z,72.95
2019-02-04T18:24:19.234Z,72.78
2019-02-04T18:26:49.777Z,72.34
2019-02-04T18:29:21.851Z,72.28
2019-02-04T18:31:52.776Z,72.38
2019-02-04T18:34:23.802Z,72.49
2019-02-04T18:36:55.135Z,73.12
2019-02-04T18:39:26.302Z,72.58
2019-02-04T18:41:58.669Z,73.41
2019-02-04T18:44:29.430Z,73.63
2019-02-04T18:47:00.344Z,74.00
2019-02-04T18:49:32.594Z,74.79
2019-02-04T18:52:03.906Z,76.14
2019-02-04T18:54:34.702Z,77.11
2019-02-04T18:57:05.717Z,77.56
2019-02-04T18:59:37.262Z,78.03
2019-02-04T19:02:07.941Z,78.19
2019-02-04T19:04:38.864Z,78.19
2019-02-04T19:07:09.373Z,78.23
2019-02-04T19:09:40.292Z,78.43
2019-02-04T19:12:11.600Z,78.51
2019-02-04T19:14:44.965Z,78.54
2019-02-04T19:17:15.956Z,78.58
2019-02-04T19:19:47.842Z,78.56
2019-02-04T19:22:18.265Z,78.59
2019-02-04T19:24:48.837Z,78.53
2019-02-04T19:27:19.852Z,78.41
2019-02-04T19:32:20.424Z,78.22
2019-02-04T19:34:51.026Z,77.86
2019-02-04T19:37:23.058Z,77.88
2019-02-04T19:39:54.268Z,77.82
2019-02-04T19:42:24.594Z,77.22
2019-02-04T19:44:55.345Z,77.12
2019-02-04T19:47:26.029Z,77.56
2019-02-04T19:49:57.075Z,77.39
2019-02-04T19:52:29.154Z,77.08
2019-02-04T19:55:01.837Z,77.05
2019-02-04T19:57:33.683Z,76.78
2019-02-04T20:00:05.235Z,76.72
2019-02-04T20:02:35.505Z,76.60
2019-02-04T20:05:12.185Z,76.62
2019-02-04T20:07:44.892Z,76.62
2019-02-04T20:10:17.843Z,76.84
2019-02-04T20:12:48.778Z,76.63
2019-02-04T20:15:25.578Z,76.80
2019-02-04T20:17:57.636Z,76.98
2019-02-04T20:20:31.015Z,76.83
2019-02-04T20:23:05.791Z,76.94
2019-02-04T20:25:37.448Z,76.85
2019-02-04T20:28:09.180Z,76.78
2019-02-04T20:30:45.910Z,76.88
2019-02-04T20:33:14.831Z,76.80
2019-02-04T20:35:47.470Z,76.82
2019-02-04T20:38:18.210Z,77.28
2019-02-04T20:40:49.597Z,77.46
2019-02-04T20:43:19.821Z,77.33
2019-02-04T20:45:50.126Z,77.31
2019-02-04T20:48:21.260Z,77.27
2019-02-04T20:50:51.668Z,77.23
2019-02-04T20:53:21.953Z,77.25
2019-02-04T20:55:53.746Z,77.56
2019-02-04T20:58:25.645Z,77.79
2019-02-04T21:00:56.769Z,78.12
2019-02-04T21:03:27.879Z,77.91
2019-02-04T21:05:58.755Z,78.08
2019-02-04T21:08:30.996Z,77.74
2019-02-04T21:11:01.752Z,77.62
2019-02-04T21:13:32.780Z,77.55
2019-02-04T21:16:03.503Z,77.62
2019-02-04T21:18:34.796Z,77.54
2019-02-04T21:21:05.951Z,77.44
2019-02-04T21:23:36.510Z,78.30
2019-02-04T21:26:07.895Z,79.29
2019-02-04T21:28:38.349Z,79.04
2019-02-04T21:31:11.403Z,78.40
2019-02-04T21:33:42.096Z,77.68
2019-02-04T21:36:12.827Z,76.99
2019-02-04T21:38:44.750Z,76.56
2019-02-04T21:41:15.563Z,76.23
2019-02-04T21:43:46.753Z,76.20
2019-02-04T21:46:17.435Z,76.37
2019-02-04T21:48:48.263Z,76.55
2019-02-04T21:51:18.639Z,76.53
2019-02-04T21:53:49.152Z,76.39
2019-02-04T21:56:19.492Z,76.26
2019-02-04T21:58:52.068Z,76.27
2019-02-04T22:01:22.686Z,76.06
2019-02-04T22:03:53.586Z,76.07
2019-02-04T22:06:25.082Z,75.92
2019-02-04T22:08:55.593Z,75.77
2019-02-04T22:11:26.780Z,75.71
2019-02-04T22:13:57.795Z,75.86
2019-02-04T22:16:28.452Z,76.11
2019-02-04T22:18:59.756Z,76.17
2019-02-04T22:21:30.763Z,76.24
2019-02-04T22:24:01.940Z,76.08
2019-02-04T22:26:32.605Z,76.01
2019-02-04T22:29:03.802Z,76.23
2019-02-04T22:31:34.624Z,76.46
2019-02-04T22:34:06.536Z,76.38
2019-02-04T22:36:37.295Z,76.53
2019-02-04T22:39:10.406Z,76.34
2019-02-04T22:41:42.071Z,76.29
2019-02-04T22:44:12.790Z,76.50
2019-02-04T22:46:43.579Z,76.79
2019-02-04T22:49:14.452Z,77.13
2019-02-04T22:51:45.020Z,77.60
2019-02-04T22:54:16.044Z,78.01
2019-02-04T22:56:46.612Z,78.51
2019-02-04T22:59:17.903Z,78.57
2019-02-04T23:01:53.937Z,78.75
2019-02-04T23:04:25.522Z,79.00
2019-02-04T23:06:56.298Z,79.01
2019-02-04T23:09:27.138Z,79.31
2019-02-04T23:12:00.074Z,79.31
2019-02-04T23:14:32.174Z,79.27
2019-02-04T23:17:03.261Z,79.20
2019-02-04T23:19:34.180Z,79.12
2019-02-04T23:22:06.005Z,79.08
2019-02-04T23:24:41.879Z,78.87
2019-02-04T23:27:13.577Z,79.04
2019-02-04T23:29:44.499Z,79.45
2019-02-04T23:32:15.107Z,79.35
2019-02-04T23:34:51.214Z,79.43
2019-02-04T23:37:22.409Z,79.52
2019-02-04T23:39:55.239Z,79.37
2019-02-04T23:42:27.081Z,79.29
2019-02-04T23:45:00.568Z,79.19
2019-02-04T23:47:31.426Z,79.26
2019-02-04T23:50:02.424Z,79.26
2019-02-04T23:52:33.396Z,80.05
2019-02-04T23:55:06.304Z,80.98
2019-02-04T23:57:37.035Z,81.64
